createdAt,value
2023-03-03T00:02:26.186Z,5.40
2023-03-03T00:05:18.743Z,5.50
2023-03-03T00:08:10.930Z,5.60
2023-03-03T00:11:03.493Z,5.50
2023-03-03T00:13:56.409Z,5.50
2023-03-03T00:16:49.284Z,5.30
2023-03-03T00:19:41.414Z,5.20
2023-03-03T00:22:41.136Z,5.40
2023-03-03T00:25:35.151Z,5.20
2023-03-03T00:28:29.997Z,5.10
2023-03-03T00:31:23.343Z,5.00
2023-03-03T00:34:22.405Z,5.00
2023-03-03T00:37:24.020Z,4.90
2023-03-03T00:40:24.186Z,5.00
2023-03-03T00:43:20.528Z,5.00
2023-03-03T00:46:14.236Z,4.90
2023-03-03T00:49:09.152Z,4.90
2023-03-03T00:52:00.213Z,4.90
2023-03-03T00:54:51.723Z,4.80
2023-03-03T00:57:44.396Z,4.80
2023-03-03T01:00:36.285Z,4.70
2023-03-03T01:03:28.973Z,4.70
2023-03-03T01:06:20.139Z,4.80
2023-03-03T01:09:11.520Z,4.70
2023-03-03T01:12:03.859Z,4.70
2023-03-03T01:14:55.677Z,4.60
2023-03-03T01:17:46.755Z,4.60
2023-03-03T01:20:37.832Z,4.50
2023-03-03T01:23:29.433Z,4.50
2023-03-03T01:26:22.230Z,4.50
2023-03-03T01:29:13.385Z,4.50
2023-03-03T01:32:04.936Z,4.40
2023-03-03T01:34:56.151Z,4.40
2023-03-03T01:37:48.027Z,4.40
2023-03-03T01:40:39.865Z,4.40
2023-03-03T01:43:32.752Z,4.50
2023-03-03T01:46:58.495Z,4.50
2023-03-03T01:49:57.255Z,4.40
2023-03-03T01:52:50.319Z,4.40
2023-03-03T01:55:44.561Z,4.40
2023-03-03T01:58:38.965Z,4.40
2023-03-03T02:01:32.924Z,4.40
2023-03-03T02:04:24.502Z,4.40
2023-03-03T02:07:17.972Z,4.40
2023-03-03T02:10:13.710Z,4.30
2023-03-03T02:13:05.575Z,4.30
2023-03-03T02:15:57.280Z,4.30
2023-03-03T02:18:48.871Z,4.40
2023-03-03T02:21:40.599Z,4.40
2023-03-03T02:24:35.955Z,4.30
2023-03-03T02:27:30.447Z,4.40
2023-03-03T02:30:23.619Z,4.30
2023-03-03T02:33:16.056Z,4.20
2023-03-03T02:36:08.299Z,4.20
2023-03-03T02:39:11.056Z,4.20
2023-03-03T02:42:05.210Z,4.20
2023-03-03T02:44:58.538Z,4.20
2023-03-03T02:47:53.568Z,4.10
2023-03-03T02:50:45.169Z,4.10
2023-03-03T02:53:37.382Z,4.10
2023-03-03T02:56:29.368Z,4.10
2023-03-03T02:59:22.065Z,4.10
2023-03-03T03:02:14.096Z,4.10
2023-03-03T03:05:06.341Z,4.00
2023-03-03T03:07:57.560Z,4.00
2023-03-03T03:10:48.679Z,4.00
2023-03-03T03:13:40.101Z,4.00
2023-03-03T03:16:32.566Z,4.10
2023-03-03T03:19:23.856Z,4.10
2023-03-03T03:22:15.229Z,4.10
2023-03-03T03:25:07.159Z,4.00
2023-03-03T03:27:58.594Z,3.90
2023-03-03T03:30:51.535Z,4.00
2023-03-03T03:33:43.999Z,3.90
2023-03-03T03:36:36.248Z,4.00
2023-03-03T03:39:27.845Z,4.00
2023-03-03T03:42:20.368Z,4.00
2023-03-03T03:45:15.304Z,4.10
2023-03-03T03:48:09.002Z,4.10
2023-03-03T03:51:00.343Z,4.00
2023-03-03T03:53:55.856Z,4.10
2023-03-03T03:56:47.346Z,4.10
2023-03-03T03:59:39.021Z,4.10
2023-03-03T04:02:30.933Z,4.10
2023-03-03T04:05:23.815Z,4.10
2023-03-03T04:08:15.587Z,4.10
2023-03-03T04:11:07.653Z,4.10
2023-03-03T04:13:59.347Z,4.10
2023-03-03T04:16:51.256Z,4.10
2023-03-03T04:19:42.736Z,4.10
2023-03-03T04:22:36.106Z,4.10
2023-03-03T04:25:28.156Z,4.00
2023-03-03T04:28:20.055Z,4.00
2023-03-03T04:31:11.869Z,4.10
2023-03-03T04:34:03.585Z,4.00
2023-03-03T04:36:55.962Z,4.10
2023-03-03T04:39:47.315Z,4.10
2023-03-03T04:42:38.685Z,4.10
2023-03-03T04:45:31.200Z,4.10
2023-03-03T04:48:23.083Z,4.10
2023-03-03T04:51:15.894Z,4.10
2023-03-03T04:54:08.587Z,4.20
2023-03-03T04:57:03.074Z,4.20
2023-03-03T04:59:54.493Z,4.10
2023-03-03T05:02:47.386Z,4.10
2023-03-03T05:05:39.217Z,4.20
2023-03-03T05:08:30.461Z,4.20
2023-03-03T05:11:28.821Z,4.20
2023-03-03T05:14:18.852Z,4.20
2023-03-03T05:17:12.456Z,4.20
2023-03-03T05:20:05.008Z,4.10
2023-03-03T05:22:57.472Z,4.10
2023-03-03T05:25:49.856Z,4.20
2023-03-03T05:28:41.183Z,4.40
2023-03-03T05:31:32.584Z,4.30
2023-03-03T05:34:24.022Z,4.30
2023-03-03T05:37:15.895Z,4.30
2023-03-03T05:40:09.054Z,4.30
2023-03-03T05:43:00.683Z,4.30
2023-03-03T05:45:57.308Z,4.30
2023-03-03T05:51:29.640Z,4.50
2023-03-03T05:54:21.156Z,4.40
2023-03-03T05:57:12.595Z,4.40
2023-03-03T06:00:04.394Z,4.40
2023-03-03T06:02:57.280Z,4.30
2023-03-03T06:05:48.890Z,4.30
2023-03-03T06:08:41.690Z,4.40
2023-03-03T06:11:33.275Z,4.50
2023-03-03T06:14:27.166Z,4.40
2023-03-03T06:17:18.815Z,4.40
2023-03-03T06:20:12.666Z,4.40
2023-03-03T06:23:16.562Z,4.40
2023-03-03T06:26:08.356Z,4.50
2023-03-03T06:28:59.897Z,4.50
2023-03-03T06:31:51.848Z,4.70
2023-03-03T06:34:43.563Z,4.70
2023-03-03T06:37:36.729Z,4.90
2023-03-03T06:40:28.239Z,4.70
2023-03-03T06:43:20.724Z,4.70
2023-03-03T06:46:13.485Z,4.70
2023-03-03T06:49:05.205Z,4.70
2023-03-03T06:51:56.800Z,4.70
2023-03-03T06:54:59.413Z,4.70
2023-03-03T06:57:51.162Z,4.80
2023-03-03T07:00:44.915Z,4.80
2023-03-03T07:03:37.008Z,4.80
2023-03-03T07:06:30.683Z,4.90
2023-03-03T07:09:25.092Z,4.90
2023-03-03T07:12:20.756Z,5.00
2023-03-03T07:15:24.344Z,5.10
2023-03-03T07:18:46.058Z,5.20
2023-03-03T07:21:39.677Z,5.20
2023-03-03T07:24:32.960Z,5.20
2023-03-03T07:27:30.312Z,5.20
2023-03-03T07:30:28.246Z,5.30
2023-03-03T07:33:27.254Z,5.20
2023-03-03T07:36:29.709Z,5.30
2023-03-03T07:39:29.544Z,5.30
2023-03-03T07:42:28.678Z,5.40
2023-03-03T07:45:32.646Z,5.50
2023-03-03T07:48:30.954Z,5.50
2023-03-03T07:51:28.352Z,5.50
2023-03-03T07:54:34.457Z,5.50
2023-03-03T07:57:28.847Z,5.60
2023-03-03T08:00:59.702Z,5.50
2023-03-03T08:03:53.343Z,5.60
2023-03-03T08:06:56.150Z,5.60
2023-03-03T08:09:53.784Z,5.50
2023-03-03T08:12:50.144Z,5.60
2023-03-03T08:15:43.424Z,5.60
2023-03-03T08:18:40.077Z,5.80
2023-03-03T08:21:32.625Z,5.80
2023-03-03T08:24:24.053Z,5.80
2023-03-03T08:27:15.775Z,5.80
2023-03-03T08:30:08.830Z,5.90
2023-03-03T08:33:01.753Z,5.90
2023-03-03T08:35:53.560Z,6.00
2023-03-03T08:38:45.185Z,6.10
2023-03-03T08:41:39.369Z,6.10
2023-03-03T08:44:32.192Z,6.20
2023-03-03T08:47:24.121Z,6.20
2023-03-03T08:52:56.626Z,6.40
2023-03-03T08:55:49.680Z,6.40
2023-03-03T08:58:49.877Z,6.40
2023-03-03T09:01:36.451Z,6.40
2023-03-03T09:04:28.176Z,6.50
2023-03-03T09:07:19.538Z,6.60
2023-03-03T09:10:32.480Z,6.50
2023-03-03T09:13:25.801Z,6.40
2023-03-03T09:16:27.663Z,6.40
2023-03-03T09:19:27.105Z,6.40
2023-03-03T09:22:23.553Z,6.50
2023-03-03T09:25:24.682Z,6.70
2023-03-03T09:28:36.041Z,6.60
2023-03-03T09:31:32.252Z,6.80
2023-03-03T09:34:28.825Z,6.90
2023-03-03T09:37:25.828Z,6.90
2023-03-03T09:40:20.630Z,6.90
2023-03-03T09:43:15.268Z,7.00
2023-03-03T09:46:12.271Z,7.00
2023-03-03T09:52:24.823Z,7.10
2023-03-03T09:55:30.644Z,7.30
2023-03-03T09:58:31.521Z,7.30
2023-03-03T10:05:21.693Z,7.00
2023-03-03T10:08:38.620Z,7.20
2023-03-03T10:11:57.318Z,7.30
2023-03-03T10:15:02.551Z,7.40
2023-03-03T10:17:55.088Z,7.40
2023-03-03T10:20:58.886Z,7.40
2023-03-03T10:24:19.193Z,7.40
2023-03-03T10:27:17.108Z,7.50
2023-03-03T10:30:12.551Z,7.60
2023-03-03T10:33:08.203Z,7.80
2023-03-03T10:39:25.101Z,7.80
2023-03-03T10:42:35.554Z,7.90
2023-03-03T11:02:48.766Z,8.20
2023-03-03T11:08:51.959Z,8.30
2023-03-03T11:11:46.271Z,8.30
2023-03-03T11:14:43.414Z,8.20
2023-03-03T11:17:39.057Z,8.20
2023-03-03T11:20:47.217Z,8.10
2023-03-03T11:27:15.893Z,7.90
2023-03-03T11:30:11.618Z,7.90
2023-03-03T11:33:05.913Z,7.70
2023-03-03T11:36:02.428Z,7.60
2023-03-03T11:39:00.282Z,7.50
2023-03-03T11:41:57.908Z,7.40
2023-03-03T11:47:46.235Z,7.30
2023-03-03T11:50:42.368Z,7.40
2023-03-03T11:53:43.385Z,7.50
2023-03-03T11:56:41.327Z,7.60
2023-03-03T11:59:51.836Z,7.60
2023-03-03T12:02:58.359Z,7.70
2023-03-03T12:06:01.625Z,7.80
2023-03-03T12:09:22.711Z,7.90
2023-03-03T12:12:18.765Z,7.80
2023-03-03T12:15:18.224Z,7.80
2023-03-03T12:18:20.234Z,7.60
2023-03-03T12:21:22.391Z,7.70
2023-03-03T12:24:24.503Z,7.60
2023-03-03T12:27:30.280Z,7.80
2023-03-03T12:30:30.852Z,7.70
2023-03-03T12:33:29.104Z,7.80
2023-03-03T12:36:37.868Z,8.00
2023-03-03T12:39:40.491Z,8.00
2023-03-03T12:46:15.351Z,7.80
2023-03-03T12:49:08.180Z,7.80
2023-03-03T12:52:10.348Z,7.80
2023-03-03T12:55:08.493Z,7.80
2023-03-03T12:58:03.828Z,7.70
2023-03-03T13:00:58.487Z,7.70
2023-03-03T13:03:57.817Z,7.70
2023-03-03T13:06:52.949Z,7.70
2023-03-03T13:09:54.363Z,7.60
2023-03-03T13:12:50.439Z,7.60
2023-03-03T13:15:55.137Z,7.70
2023-03-03T13:18:58.511Z,7.60
2023-03-03T13:22:03.807Z,7.60
2023-03-03T13:25:01.530Z,7.60
2023-03-03T13:27:56.240Z,7.50
2023-03-03T13:30:51.184Z,7.60
2023-03-03T13:33:53.915Z,7.60
2023-03-03T13:36:51.023Z,7.60
2023-03-03T13:39:46.834Z,7.60
2023-03-03T13:42:45.203Z,7.50
2023-03-03T13:45:43.102Z,7.70
2023-03-03T13:49:24.476Z,7.60
2023-03-03T13:52:19.238Z,7.70
2023-03-03T13:55:21.679Z,7.70
2023-03-03T13:58:28.261Z,7.80
2023-03-03T14:04:42.592Z,7.80
2023-03-03T14:07:37.523Z,7.90
2023-03-03T14:10:36.388Z,7.80
2023-03-03T14:13:31.703Z,7.90
2023-03-03T14:16:28.534Z,7.90
2023-03-03T14:19:24.220Z,7.90
2023-03-03T14:22:24.654Z,7.90
2023-03-03T14:25:17.427Z,8.10
2023-03-03T14:28:14.379Z,8.10
2023-03-03T14:31:13.904Z,8.30
2023-03-03T14:34:08.963Z,8.20
2023-03-03T14:37:04.648Z,8.20
2023-03-03T14:40:18.463Z,8.20
2023-03-03T14:43:24.264Z,8.20
2023-03-03T14:46:36.800Z,8.20
2023-03-03T14:49:34.269Z,8.30
2023-03-03T14:52:36.235Z,8.20
2023-03-03T14:55:37.466Z,8.30
2023-03-03T14:58:45.024Z,8.20
2023-03-03T15:01:38.005Z,8.30
2023-03-03T15:04:31.772Z,8.40
2023-03-03T15:07:30.962Z,8.50
2023-03-03T15:10:35.327Z,8.50
2023-03-03T15:13:36.958Z,8.40
2023-03-03T15:16:38.598Z,8.30
2023-03-03T15:19:51.536Z,8.30
2023-03-03T15:22:49.882Z,8.20
2023-03-03T15:25:43.696Z,8.20
2023-03-03T15:28:43.808Z,8.10
2023-03-03T15:31:42.929Z,8.20
2023-03-03T15:34:44.490Z,8.20
2023-03-03T15:37:42.572Z,8.10
2023-03-03T15:40:44.177Z,8.10
2023-03-03T15:44:07.054Z,8.10
2023-03-03T15:47:08.882Z,8.00
2023-03-03T15:53:37.496Z,8.00
2023-03-03T15:56:33.856Z,8.00
2023-03-03T16:15:54.925Z,7.90
2023-03-03T16:18:54.140Z,8.00
2023-03-03T16:22:02.428Z,8.00
2023-03-03T16:25:02.415Z,8.00
2023-03-03T16:27:57.701Z,7.90
2023-03-03T16:30:53.735Z,7.90
2023-03-03T16:33:49.409Z,7.90
2023-03-03T16:36:45.311Z,7.90
2023-03-03T16:39:44.542Z,7.90
2023-03-03T16:42:37.038Z,7.90
2023-03-03T16:45:31.707Z,7.80
2023-03-03T16:48:50.261Z,7.80
2023-03-03T16:55:32.262Z,7.80
2023-03-03T16:58:31.365Z,7.80
2023-03-03T17:01:29.626Z,7.80
2023-03-03T17:04:31.958Z,7.80
2023-03-03T17:07:34.543Z,7.80
2023-03-03T17:10:31.766Z,7.70
2023-03-03T17:13:33.272Z,7.70
2023-03-03T17:16:37.036Z,7.70
2023-03-03T17:19:37.930Z,7.80
2023-03-03T17:22:34.324Z,7.70
2023-03-03T17:25:30.006Z,7.70
2023-03-03T17:28:35.800Z,7.60
2023-03-03T17:34:30.900Z,7.60
2023-03-03T17:37:28.580Z,7.60
2023-03-03T17:40:29.119Z,7.50
2023-03-03T17:43:25.268Z,7.50
2023-03-03T17:46:20.774Z,7.50
2023-03-03T17:49:34.082Z,7.50
2023-03-03T17:52:52.973Z,7.50
2023-03-03T17:55:55.347Z,7.50
2023-03-03T17:59:20.012Z,7.40
2023-03-03T18:02:54.050Z,7.50
2023-03-03T18:06:11.451Z,7.40
2023-03-03T18:09:17.032Z,7.40
2023-03-03T18:12:16.154Z,7.40
2023-03-03T18:18:09.015Z,7.40
2023-03-03T18:21:06.324Z,7.40
2023-03-03T18:24:23.408Z,7.40
2023-03-03T18:27:34.702Z,7.40
2023-03-03T18:30:32.588Z,7.30
2023-03-03T18:33:44.044Z,7.30
2023-03-03T18:36:42.556Z,7.30
2023-03-03T18:39:46.780Z,7.30
2023-03-03T18:45:49.656Z,7.20
2023-03-03T18:48:51.778Z,7.20
2023-03-03T18:51:55.412Z,7.20
2023-03-03T18:54:48.099Z,7.20
2023-03-03T18:57:40.143Z,7.20
2023-03-03T19:00:32.725Z,7.20
2023-03-03T19:03:30.216Z,7.10
2023-03-03T19:06:34.955Z,7.20
2023-03-03T19:09:53.811Z,7.20
2023-03-03T19:12:52.445Z,7.20
2023-03-03T19:15:56.504Z,7.20
2023-03-03T19:22:27.091Z,7.10
2023-03-03T19:25:33.610Z,7.10
2023-03-03T19:28:36.636Z,7.10
2023-03-03T19:31:35.003Z,7.10
2023-03-03T19:34:40.477Z,7.00
2023-03-03T19:37:40.195Z,7.00
2023-03-03T19:40:37.609Z,7.10
2023-03-03T19:43:35.474Z,7.00
2023-03-03T19:46:35.581Z,7.00
2023-03-03T19:49:36.965Z,7.00
2023-03-03T19:52:33.293Z,7.00
2023-03-03T19:55:30.812Z,7.00
2023-03-03T19:58:29.165Z,7.00
2023-03-03T20:01:21.130Z,6.90
2023-03-03T20:04:27.392Z,7.00
2023-03-03T20:07:28.931Z,6.90
2023-03-03T20:10:32.291Z,6.90
2023-03-03T20:13:43.891Z,6.80
2023-03-03T20:16:41.690Z,6.90
2023-03-03T20:22:26.431Z,6.80
2023-03-03T20:25:27.306Z,6.80
2023-03-03T20:28:42.188Z,6.80
2023-03-03T20:31:47.085Z,6.80
2023-03-03T20:34:43.109Z,6.80
2023-03-03T20:37:41.415Z,6.80
2023-03-03T20:40:36.208Z,6.90
2023-03-03T20:43:36.320Z,6.80
2023-03-03T20:49:36.194Z,6.90
2023-03-03T20:52:33.706Z,6.90
2023-03-03T20:55:30.235Z,6.90
2023-03-03T20:58:25.306Z,6.90
2023-03-03T21:01:19.864Z,6.90
2023-03-03T21:04:23.900Z,6.90
2023-03-03T21:07:27.111Z,7.00
2023-03-03T21:10:30.745Z,6.90
2023-03-03T21:13:31.394Z,6.90
2023-03-03T21:16:35.964Z,6.90
2023-03-03T21:22:17.059Z,6.90
2023-03-03T21:25:11.326Z,6.90
2023-03-03T21:31:15.725Z,6.80
2023-03-03T21:36:53.772Z,6.80
2023-03-03T21:39:45.952Z,6.80
2023-03-03T21:42:44.435Z,6.80
2023-03-03T21:45:36.914Z,6.80
2023-03-03T21:48:28.463Z,6.80
2023-03-03T21:51:21.512Z,6.80
2023-03-03T21:54:12.710Z,6.80
2023-03-03T21:57:04.001Z,6.80
2023-03-03T21:59:55.548Z,6.90
2023-03-03T22:02:47.208Z,6.80
2023-03-03T22:05:38.601Z,6.80
2023-03-03T22:08:30.046Z,6.80
2023-03-03T22:14:04.507Z,6.90
2023-03-03T22:16:56.159Z,6.90
2023-03-03T22:19:47.913Z,6.90
2023-03-03T22:22:39.237Z,6.90
2023-03-03T22:25:30.892Z,7.00
2023-03-03T22:28:27.839Z,7.00
2023-03-03T22:31:15.539Z,7.00
2023-03-03T22:34:08.538Z,6.90
2023-03-03T22:37:00.016Z,6.90
2023-03-03T22:39:51.665Z,6.80
2023-03-03T22:42:44.316Z,6.80
2023-03-03T22:45:35.957Z,6.80
2023-03-03T22:48:28.794Z,6.80
2023-03-03T22:51:22.354Z,6.80
2023-03-03T22:54:17.008Z,6.80
2023-03-03T22:57:08.241Z,6.80
2023-03-03T23:00:00.236Z,6.80
2023-03-03T23:02:51.712Z,6.70
2023-03-03T23:05:43.637Z,6.70
2023-03-03T23:08:34.889Z,6.60
2023-03-03T23:11:27.621Z,6.50
2023-03-03T23:14:18.866Z,6.50
2023-03-03T23:17:10.319Z,6.50
2023-03-03T23:20:09.946Z,6.50
2023-03-03T23:23:01.584Z,6.50
2023-03-03T23:25:56.127Z,6.50
2023-03-03T23:28:48.193Z,6.50
2023-03-03T23:31:39.877Z,6.50
2023-03-03T23:34:31.306Z,6.50
2023-03-03T23:37:22.777Z,6.50
2023-03-03T23:40:16.542Z,6.60
2023-03-03T23:43:07.939Z,6.70
2023-03-03T23:45:59.543Z,6.70
2023-03-03T23:48:50.946Z,6.60
2023-03-03T23:51:43.113Z,6.50
2023-03-03T23:54:34.630Z,6.50
2023-03-03T23:57:26.255Z,6.50
